CheckWX is a tool to help pilots better visualize weather data.  It is not intended as a substitute for an official pre-flight weather briefing.

06:56:39 UTC

MDBH TAF
Maria Montez International Airport
Barahona, Dominican Republic
TAF MDBH 180400Z 1806/1906 13006KT 9999 SCT018 PROB30 1806/1810 8000 RA SCT018 BKN080 BECMG 1807/1809 00000KT

Jun-18@
06:00 UTC

Jun-18 @ 06:00 UTC

Jun-18@
07:00 UTC

Jun-18 @ 07:00 UTC

TAF MDBH 180400Z 1806/1906 13006KT 9999 SCT018
Wind
  • 130° at 6 KTS
Cloud Levels
  • Scattered at 1,800' AGL

Jun-18@
06:00 UTC

Jun-18 @ 06:00 UTC

Jun-18@
10:00 UTC

Jun-18 @ 10:00 UTC

PROB30 1806/1810 8000 RA SCT018 BKN080

Probable - 30% Likelihood

Probable - 30% Likelihood during this time.

Conditions
Rain
Cloud Levels
  • Scattered at 1,800' AGL
  • Broken at 8,000' AGL

Jun-18@
07:00 UTC

Jun-18 @ 07:00 UTC

Jun-19@
06:00 UTC

Jun-19 @ 06:00 UTC

BECMG 1807/1809 00000KT

Becoming

Becoming Conditions expected by Tue, Jun 18, 2019 @ 09:00 UTC

Cloud Levels
  • Scattered at 1,800' AGL